sensor_id;sensor_type;location;lat;lon;timestamp;P1;P2;P0
68198;PMS7003;55021;51.554;17.044;2023-10-19T00:16:44;64.25;47.50;31.25
68198;PMS7003;55021;51.554;17.044;2023-10-19T01:01:54;64.25;47.50;30.25
68198;PMS7003;55021;51.554;17.044;2023-10-19T01:31:58;61.50;48.75;30.75
68198;PMS7003;55021;51.554;17.044;2023-10-19T02:02:02;63.75;50.25;32.00
68198;PMS7003;55021;51.554;17.044;2023-10-19T02:32:07;65.00;49.75;32.00
68198;PMS7003;55021;51.554;17.044;2023-10-19T02:47:09;52.50;43.75;28.00
68198;PMS7003;55021;51.554;17.044;2023-10-19T03:17:14;62.25;49.25;30.75
68198;PMS7003;55021;51.554;17.044;2023-10-19T03:47:19;63.50;50.75;30.75
68198;PMS7003;55021;51.554;17.044;2023-10-19T04:17:26;52.75;43.75;29.25
68198;PMS7003;55021;51.554;17.044;2023-10-19T04:47:31;61.50;50.50;30.75
68198;PMS7003;55021;51.554;17.044;2023-10-19T05:17:36;79.75;63.25;42.00
68198;PMS7003;55021;51.554;17.044;2023-10-19T05:47:41;50.25;41.25;26.00
68198;PMS7003;55021;51.554;17.044;2023-10-19T06:17:46;47.00;41.75;25.75
68198;PMS7003;55021;51.554;17.044;2023-10-19T06:47:52;54.00;41.00;25.75
68198;PMS7003;55021;51.554;17.044;2023-10-19T07:17:57;48.25;40.25;25.00
68198;PMS7003;55021;51.554;17.044;2023-10-19T07:48:02;46.25;38.00;25.00
68198;PMS7003;55021;51.554;17.044;2023-10-19T08:33:10;49.00;39.25;25.00
68198;PMS7003;55021;51.554;17.044;2023-10-19T09:03:15;49.75;41.75;27.75
68198;PMS7003;55021;51.554;17.044;2023-10-19T09:33:22;55.00;42.00;25.75
68198;PMS7003;55021;51.554;17.044;2023-10-19T10:33:53;58.25;45.00;28.00
68198;PMS7003;55021;51.554;17.044;2023-10-19T11:04:09;64.25;47.50;30.75
68198;PMS7003;55021;51.554;17.044;2023-10-19T11:34:14;61.25;46.75;31.00
68198;PMS7003;55021;51.554;17.044;2023-10-19T12:04:20;63.50;50.50;31.75
68198;PMS7003;55021;51.554;17.044;2023-10-19T12:34:24;67.50;51.50;33.50
68198;PMS7003;55021;51.554;17.044;2023-10-19T13:04:29;71.50;54.50;33.75
68198;PMS7003;55021;51.554;17.044;2023-10-19T13:34:34;69.75;55.00;34.25
68198;PMS7003;55021;51.554;17.044;2023-10-19T14:04:39;75.00;56.75;36.75
68198;PMS7003;55021;51.554;17.044;2023-10-19T14:34:46;73.25;54.25;33.75
68198;PMS7003;55021;51.554;17.044;2023-10-19T15:04:51;81.50;58.50;35.75
68198;PMS7003;55021;51.554;17.044;2023-10-19T15:34:55;72.50;54.50;34.25
68198;PMS7003;55021;51.554;17.044;2023-10-19T16:05:16;69.00;53.25;33.75
68198;PMS7003;55021;51.554;17.044;2023-10-19T16:35:21;68.00;54.50;34.75
68198;PMS7003;55021;51.554;17.044;2023-10-19T17:05:27;71.50;53.00;33.50
68198;PMS7003;55021;51.554;17.044;2023-10-19T17:35:32;70.25;52.00;31.25
68198;PMS7003;55021;51.554;17.044;2023-10-19T18:05:43;71.50;54.00;33.25
68198;PMS7003;55021;51.554;17.044;2023-10-19T18:35:49;68.75;53.25;33.75
68198;PMS7003;55021;51.554;17.044;2023-10-19T19:06:02;71.25;56.25;34.50
68198;PMS7003;55021;51.554;17.044;2023-10-19T19:36:08;71.50;54.00;32.75
68198;PMS7003;55021;51.554;17.044;2023-10-19T19:51:11;65.00;47.00;30.00
68198;PMS7003;55021;51.554;17.044;2023-10-19T20:21:16;66.25;49.50;30.00
68198;PMS7003;55021;51.554;17.044;2023-10-19T20:51:21;68.75;51.00;29.00
68198;PMS7003;55021;51.554;17.044;2023-10-19T21:21:26;68.25;50.25;32.00
68198;PMS7003;55021;51.554;17.044;2023-10-19T21:51:31;70.50;51.00;32.00
68198;PMS7003;55021;51.554;17.044;2023-10-19T22:21:35;73.00;55.25;32.00
68198;PMS7003;55021;51.554;17.044;2023-10-19T22:51:40;75.00;56.25;34.00
68198;PMS7003;55021;51.554;17.044;2023-10-19T23:21:45;79.25;57.75;34.25
68198;PMS7003;55021;51.554;17.044;2023-10-19T23:51:49;79.00;59.75;35.25
